Time;durP1;ratioP1;P1;durP2;ratioP2;P2;SDS_P1;SDS_P2;PMS_P1;PMS_P2;Temp;Humidity;BMP_temperature;BMP_pressure;BME280_temperature;BME280_humidity;BME280_pressure;Samples;Min_cycle;Max_cycle;Signal;HPM_P1;HPM_P2
2022/03/14 00:03:47;;;;;;;35.80;20.00;;;;;;;-0.40;50.84;99681.83;220118;1277;22553;-71
2022/03/14 00:09:37;;;;;;;;;;;;;;;;;;;;;
2022/03/14 00:14:57;;;;;;;33.70;18.30;;;;;;;-0.45;51.77;99679.78;220497;1274;24375;-72
2022/03/14 00:20:13;;;;;;;36.60;19.40;;;;;;;-0.44;52.33;99684.55;220346;1276;22541;-70
2022/03/14 00:25:27;;;;;;;39.10;19.80;;;;;;;-0.46;52.46;99689.02;220344;1277;23089;-72
2022/03/14 00:30:48;;;;;;;32.20;18.40;;;;;;;-0.55;52.53;99688.66;220332;1277;22542;-72
2022/03/14 00:35:56;;;;;;;41.90;20.50;;;;;;;-0.64;52.63;99688.58;220303;1277;22696;-71
2022/03/14 00:41:04;;;;;;;36.10;19.70;;;;;;;-0.73;52.91;99688.71;220416;1276;23509;-72
2022/03/14 00:46:17;;;;;;;40.70;21.60;;;;;;;-0.83;53.04;99694.11;220331;1276;22743;-71
2022/03/14 00:51:36;;;;;;;41.90;23.10;;;;;;;-0.90;53.47;99697.53;220516;1275;22547;-72
2022/03/14 00:56:39;;;;;;;33.80;19.90;;;;;;;-0.92;53.67;99697.97;220469;1277;22819;-72
2022/03/14 01:01:41;;;;;;;37.70;20.70;;;;;;;-0.96;54.05;99706.38;220500;1277;22563;-71
2022/03/14 01:07:02;;;;;;;37.30;21.10;;;;;;;-1.00;54.58;99710.08;220213;1276;22572;-70
2022/03/14 01:12:05;;;;;;;40.20;21.40;;;;;;;-1.06;54.83;99710.67;220612;1275;22579;-70
2022/03/14 01:17:08;;;;;;;36.40;20.90;;;;;;;-1.13;55.18;99708.19;220460;1276;22581;-72
2022/03/14 01:22:13;;;;;;;38.00;22.10;;;;;;;-1.18;55.71;99707.05;220418;1276;22666;-72
2022/03/14 01:27:27;;;;;;;39.00;22.80;;;;;;;-1.16;56.01;99703.98;220384;1276;24243;-71
2022/03/14 01:33:10;;;;;;;41.70;22.90;;;;;;;-1.18;56.04;99710.77;220408;1275;24120;-71
2022/03/14 01:38:35;;;;;;;47.70;22.50;;;;;;;-1.27;56.27;99712.34;220462;1277;22695;-72
2022/03/14 01:44:21;;;;;;;45.80;23.20;;;;;;;-1.39;56.39;99717.08;220370;1276;22632;-72
2022/03/14 01:50:27;;;;;;;38.70;19.70;;;;;;;-1.55;56.69;99724.67;220447;1277;22690;-72
2022/03/14 01:55:58;;;;;;;42.40;21.80;;;;;;;-1.65;56.92;99728.26;220542;1276;22598;-71
2022/03/14 02:01:05;;;;;;;41.70;21.30;;;;;;;-1.70;57.27;99733.80;220271;1277;25378;-71
2022/03/14 02:06:17;;;;;;;46.30;22.90;;;;;;;-1.70;57.77;99731.35;220421;1276;23199;-71
2022/03/14 02:11:31;;;;;;;44.00;23.30;;;;;;;-1.70;57.80;99736.98;220486;1277;23587;-72
2022/03/14 02:16:48;;;;;;;42.60;23.00;;;;;;;-1.74;58.03;99739.42;220368;1277;22695;-71
2022/03/14 02:21:50;;;;;;;38.30;20.40;;;;;;;-1.75;58.21;99740.19;220358;1277;22730;-71
2022/03/14 02:26:56;;;;;;;43.80;23.70;;;;;;;-1.70;58.59;99745.13;220347;1277;23805;-72
2022/03/14 02:31:58;;;;;;;42.70;23.10;;;;;;;-1.65;58.56;99751.61;220384;1277;25601;-71
2022/03/14 02:37:03;;;;;;;40.30;20.20;;;;;;;-1.62;58.83;99750.85;220370;1277;22584;-71
2022/03/14 02:42:06;;;;;;;43.40;24.50;;;;;;;-1.55;59.38;99753.38;220488;1276;25522;-72
2022/03/14 02:47:14;;;;;;;42.40;23.00;;;;;;;-1.50;59.39;99756.30;220615;1276;22850;-71
2022/03/14 02:52:16;;;;;;;42.30;24.00;;;;;;;-1.51;59.27;99757.47;220364;1276;23137;-72
2022/03/14 02:57:28;;;;;;;38.50;21.80;;;;;;;-1.56;59.49;99759.40;220456;1277;22797;-72
2022/03/14 03:02:43;;;;;;;47.60;22.90;;;;;;;-1.63;59.78;99760.77;220639;1277;23119;-71
2022/03/14 03:08:04;;;;;;;43.40;23.90;;;;;;;-1.67;60.18;99761.13;220721;1277;22730;-72
2022/03/14 03:13:07;;;;;;;43.80;22.00;;;;;;;-1.73;60.47;99763.04;220639;1277;23317;-72
2022/03/14 03:18:53;;;;;;;45.70;23.10;;;;;;;-1.76;60.66;99764.49;220716;1277;24303;-72
2022/03/14 03:25:02;;;;;;;42.60;21.40;;;;;;;-1.79;60.97;99775.09;220524;1277;22473;-72
2022/03/14 03:30:47;;;;;;;40.50;22.20;;;;;;;-1.82;61.21;99776.34;220564;1277;22568;-72
2022/03/14 03:36:25;;;;;;;42.40;23.90;;;;;;;-1.86;61.42;99776.69;220633;1277;25477;-72
2022/03/14 03:42:41;;;;;;;44.90;22.80;;;;;;;-1.93;61.38;99783.89;220562;1276;24316;-72
2022/03/14 03:48:23;;;;;;;41.90;22.80;;;;;;;-1.99;61.50;99791.02;220547;1277;22554;-72
2022/03/14 03:53:36;;;;;;;47.10;21.80;;;;;;;-2.08;61.56;99790.23;220563;1277;22993;-71
2022/03/14 03:58:44;;;;;;;46.40;24.80;;;;;;;-2.11;61.87;99795.02;220775;1277;26134;-70
2022/03/14 04:03:58;;;;;;;41.30;22.40;;;;;;;-2.14;61.99;99802.05;220641;1277;22529;-72
2022/03/14 04:09:05;;;;;;;48.70;25.30;;;;;;;-2.20;62.00;99804.47;220613;1276;23381;-72
2022/03/14 04:14:09;;;;;;;46.20;23.70;;;;;;;-2.22;62.39;99798.65;220644;1277;23379;-72
2022/03/14 04:19:19;;;;;;;47.70;24.30;;;;;;;-2.23;62.64;99803.02;220406;1276;22570;-72
2022/03/14 04:24:22;;;;;;;48.00;24.90;;;;;;;-2.26;62.79;99800.39;220597;1277;22556;-72
2022/03/14 04:29:27;;;;;;;40.90;22.50;;;;;;;-2.28;63.20;99794.77;220352;1278;25152;-71
2022/03/14 04:34:46;;;;;;;46.00;24.40;;;;;;;-2.27;63.77;99797.55;220620;1277;22694;-72
2022/03/14 04:39:49;;;;;;;51.00;26.70;;;;;;;-2.21;64.01;99799.56;220286;1277;25504;-72
2022/03/14 04:44:54;;;;;;;54.20;30.40;;;;;;;-2.19;64.09;99801.92;220251;1277;25997;-71
2022/03/14 04:50:01;;;;;;;49.00;26.60;;;;;;;-2.20;64.01;99800.95;220330;1277;22605;-73
2022/03/14 05:01:06;;;;;;;;;;;;;;;;;;;;;
2022/03/14 05:11:52;;;;;;;47.10;25.50;;;;;;;-2.31;65.20;99806.13;220511;1277;22708;-72
2022/03/14 05:16:59;;;;;;;47.30;25.00;;;;;;;-2.31;65.27;99809.85;220345;1278;24430;-72
2022/03/14 05:22:02;;;;;;;47.40;24.40;;;;;;;-2.30;65.37;99814.66;220462;1277;22614;-72
2022/03/14 05:27:32;;;;;;;48.70;25.50;;;;;;;-2.28;65.59;99822.45;220351;1277;22567;-72
2022/03/14 05:32:36;;;;;;;50.90;26.60;;;;;;;-2.24;65.96;99825.02;220382;1277;24946;-73
2022/03/14 05:37:40;;;;;;;47.30;24.30;;;;;;;-2.18;65.72;99824.89;220625;1277;25518;-74
2022/03/14 05:42:55;;;;;;;47.90;23.10;;;;;;;-2.12;65.64;99831.66;220631;1277;24016;-71
2022/03/14 05:47:57;;;;;;;47.70;24.50;;;;;;;-2.00;65.77;99839.05;220771;1277;22725;-72
2022/03/14 05:53:01;;;;;;;46.00;23.60;;;;;;;-1.88;65.76;99843.59;220526;1277;23060;-72
2022/03/14 05:58:07;;;;;;;47.60;25.30;;;;;;;-1.76;65.65;99848.52;220622;1275;24458;-72
2022/03/14 06:03:10;;;;;;;50.40;26.40;;;;;;;-1.65;65.66;99849.52;220576;1276;24393;-72
2022/03/14 06:08:21;;;;;;;48.60;26.10;;;;;;;-1.47;65.70;99853.18;220670;1277;22528;-72
2022/03/14 06:13:23;;;;;;;52.90;27.60;;;;;;;-1.27;65.59;99858.89;220730;1276;22637;-72
2022/03/14 06:18:26;;;;;;;49.80;26.80;;;;;;;-1.08;65.54;99857.25;220599;1276;24792;-71
2022/03/14 06:23:29;;;;;;;50.00;26.80;;;;;;;-0.87;65.18;99861.27;220649;1277;22738;-72
2022/03/14 06:28:31;;;;;;;49.90;27.70;;;;;;;-0.69;64.90;99867.33;220417;1276;22669;-73
2022/03/14 06:33:34;;;;;;;50.40;28.60;;;;;;;-0.46;64.78;99865.84;220544;1277;22501;-74
2022/03/14 06:38:36;;;;;;;56.90;28.10;;;;;;;-0.21;64.70;99870.50;220837;1275;22614;-71
2022/03/14 06:43:44;;;;;;;51.30;26.90;;;;;;;-0.00;63.82;99872.34;220488;1276;22606;-71
2022/03/14 06:48:47;;;;;;;48.40;25.60;;;;;;;0.23;63.62;99875.05;220806;1276;24674;-72
2022/03/14 06:53:52;;;;;;;50.70;29.20;;;;;;;0.46;63.44;99879.58;220875;1277;22558;-72
2022/03/14 06:58:55;;;;;;;49.20;25.60;;;;;;;0.70;63.09;99885.04;220572;1276;22562;-71
2022/03/14 07:03:57;;;;;;;45.90;25.50;;;;;;;0.92;62.42;99887.11;220960;1274;22590;-72
2022/03/14 07:09:02;;;;;;;47.20;27.10;;;;;;;1.17;62.25;99890.57;220784;1274;25389;-71
2022/03/14 07:14:10;;;;;;;50.70;29.00;;;;;;;1.46;61.85;99883.11;220944;1274;23115;-70
2022/03/14 07:19:13;;;;;;;49.80;27.60;;;;;;;1.65;61.18;99890.73;220846;1274;22759;-71
2022/03/14 07:24:16;;;;;;;52.90;28.00;;;;;;;1.87;60.72;99897.77;220637;1274;328196;-71
2022/03/14 07:29:18;;;;;;;51.20;28.80;;;;;;;2.18;60.19;99907.52;220650;1274;22646;-72
2022/03/14 07:34:21;;;;;;;47.40;27.00;;;;;;;2.47;59.67;99918.61;222158;1274;22567;-71
2022/03/14 07:39:24;;;;;;;44.40;26.30;;;;;;;2.68;59.06;99923.29;221131;1275;22664;-72
2022/03/14 07:44:26;;;;;;;45.40;26.40;;;;;;;2.90;58.64;99922.77;220979;1274;22645;-73
2022/03/14 07:49:29;;;;;;;48.00;25.60;;;;;;;3.17;58.45;99919.27;220776;1274;25937;-73
2022/03/14 07:54:51;;;;;;;47.10;27.40;;;;;;;3.47;57.66;99914.99;220746;1277;26367;-72
2022/03/14 08:00:18;;;;;;;50.70;28.50;;;;;;;3.78;57.22;99911.00;220894;1274;23531;-72
2022/03/14 08:05:35;;;;;;;50.60;27.00;;;;;;;4.05;56.46;99912.97;220549;1276;24279;-72
2022/03/14 08:10:45;;;;;;;46.50;24.90;;;;;;;4.31;55.95;99917.61;220757;1277;23128;-74
2022/03/14 08:16:03;;;;;;;44.60;27.20;;;;;;;4.59;55.59;99920.58;220713;1275;23436;-72
2022/03/14 08:21:19;;;;;;;45.90;25.70;;;;;;;4.92;55.16;99922.47;220613;1274;25402;-73
2022/03/14 08:26:22;;;;;;;45.10;25.60;;;;;;;5.23;54.73;99921.42;220631;1276;24398;-73
2022/03/14 08:31:24;;;;;;;45.60;27.00;;;;;;;5.50;53.93;99917.28;221132;1276;24313;-72
2022/03/14 08:36:27;;;;;;;32.40;17.10;;;;;;;5.74;53.07;99917.07;220681;1276;22612;-73
2022/03/14 08:41:31;;;;;;;29.90;16.90;;;;;;;6.01;51.98;99920.84;220856;1276;23350;-73
2022/03/14 08:46:45;;;;;;;22.20;10.80;;;;;;;6.32;48.70;99917.17;221210;1275;22586;-71
2022/03/14 08:51:57;;;;;;;14.70;8.90;;;;;;;6.70;44.40;99920.48;220840;1277;24993;-73
2022/03/14 08:57:00;;;;;;;15.40;8.80;;;;;;;7.01;45.66;99921.36;220889;1275;25276;-72
2022/03/14 09:02:03;;;;;;;16.80;10.00;;;;;;;7.31;44.58;99921.59;220970;1276;24275;-72
2022/03/14 09:07:06;;;;;;;18.10;10.80;;;;;;;7.57;44.04;99919.64;220599;1276;22615;-71
2022/03/14 09:12:09;;;;;;;19.20;11.40;;;;;;;7.77;43.72;99921.74;221017;1276;26383;-71
2022/03/14 09:17:12;;;;;;;20.90;13.10;;;;;;;7.97;41.98;99924.73;221516;1276;22679;-72
2022/03/14 09:22:16;;;;;;;16.20;8.10;;;;;;;8.13;41.58;99935.13;220802;1274;22632;-70
2022/03/14 09:27:19;;;;;;;11.00;7.40;;;;;;;8.42;41.50;99939.09;220700;1274;22577;-72
2022/03/14 09:32:22;;;;;;;16.80;7.20;;;;;;;8.65;39.83;99938.89;220859;1274;22629;-71
2022/03/14 09:37:24;;;;;;;15.00;7.80;;;;;;;8.82;39.69;99942.10;221059;1274;22639;-71
2022/03/14 09:42:39;;;;;;;13.90;8.30;;;;;;;9.03;39.20;99940.06;218584;1274;24166;-70
2022/03/14 09:47:56;;;;;;;13.80;7.50;;;;;;;9.20;38.36;99940.73;219066;1274;24285;-70
2022/03/14 09:53:00;;;;;;;12.10;7.50;;;;;;;9.38;38.33;99942.05;220885;1274;22518;-72
2022/03/14 09:58:06;;;;;;;10.10;6.70;;;;;;;9.47;36.57;99941.33;221100;1274;24304;-71
2022/03/14 10:03:09;;;;;;;8.30;5.90;;;;;;;9.57;36.92;99942.56;221831;1274;22534;-71
2022/03/14 10:08:13;;;;;;;10.30;6.60;;;;;;;9.71;36.24;99932.27;221172;1276;22601;-72
2022/03/14 10:13:16;;;;;;;12.20;7.30;;;;;;;9.81;34.55;99932.19;221102;1274;23549;-71
2022/03/14 10:18:19;;;;;;;10.50;7.50;;;;;;;9.95;35.52;99925.66;220841;1277;22535;-70
2022/03/14 10:23:44;;;;;;;14.40;8.60;;;;;;;10.10;35.04;99918.19;221090;1277;22549;-71
2022/03/14 10:28:50;;;;;;;13.20;8.60;;;;;;;10.27;34.89;99917.38;221059;1275;22548;-70
2022/03/14 10:34:14;;;;;;;13.00;7.70;;;;;;;10.37;34.58;99912.49;220508;1276;22724;-71
2022/03/14 10:39:27;;;;;;;16.80;8.30;;;;;;;10.48;34.83;99912.66;220755;1274;22610;-71
2022/03/14 10:44:31;;;;;;;16.00;8.80;;;;;;;10.57;33.55;99909.77;220998;1274;22589;-71
2022/03/14 10:49:38;;;;;;;11.90;8.30;;;;;;;10.69;34.66;99909.98;221014;1274;22560;-71
2022/03/14 10:54:42;;;;;;;12.30;7.60;;;;;;;10.87;34.44;99902.61;220959;1274;25832;-71
2022/03/14 10:59:55;;;;;;;13.60;7.70;;;;;;;10.97;32.75;99902.05;220722;1277;22710;-72
2022/03/14 11:04:59;;;;;;;10.10;6.40;;;;;;;10.98;33.15;99893.27;221409;1275;22588;-71
2022/03/14 11:10:06;;;;;;;10.50;5.80;;;;;;;11.07;32.87;99893.29;221334;1274;23075;-71
2022/03/14 11:15:09;;;;;;;8.20;5.40;;;;;;;11.20;32.86;99889.84;221197;1277;23254;-72
2022/03/14 11:20:11;;;;;;;8.20;5.70;;;;;;;11.36;32.88;99886.74;221030;1276;23791;-70
2022/03/14 11:25:16;;;;;;;10.10;6.20;;;;;;;11.48;32.02;99885.10;220912;1274;26460;-71
2022/03/14 11:30:19;;;;;;;8.20;5.80;;;;;;;11.53;32.14;99880.86;221547;1274;22556;-72
2022/03/14 11:35:24;;;;;;;8.70;5.70;;;;;;;11.67;32.43;99877.77;220958;1276;23340;-71
2022/03/14 11:40:27;;;;;;;9.10;6.10;;;;;;;11.86;32.27;99870.39;220803;1276;22557;-72
2022/03/14 11:45:37;;;;;;;10.20;6.20;;;;;;;12.01;32.10;99872.34;220730;1277;22554;-71
2022/03/14 11:50:55;;;;;;;10.70;6.20;;;;;;;12.15;32.35;99871.83;221206;1275;22578;-71
2022/03/14 11:56:08;;;;;;;12.40;7.20;;;;;;;12.28;31.30;99871.60;221125;1276;22590;-74
2022/03/14 12:01:17;;;;;;;16.60;5.80;;;;;;;12.34;31.14;99876.59;220912;1277;22590;-74
2022/03/14 12:06:47;;;;;;;9.90;6.50;;;;;;;12.44;31.27;99877.73;220693;1277;22559;-73
2022/03/14 12:11:55;;;;;;;8.10;6.00;;;;;;;12.55;31.19;99871.56;220688;1276;24367;-73
2022/03/14 12:17:22;;;;;;;7.60;5.90;;;;;;;12.56;29.85;99869.14;220601;1276;24384;-74
2022/03/14 12:22:49;;;;;;;7.80;5.90;;;;;;;12.58;29.64;99866.50;220761;1276;22715;-73
2022/03/14 12:28:42;;;;;;;10.20;6.80;;;;;;;12.60;29.84;99862.57;220404;1277;22708;-72
2022/03/14 12:33:50;;;;;;;12.50;6.60;;;;;;;12.71;30.20;99853.98;220542;1277;22673;-72
2022/03/14 12:39:22;;;;;;;7.90;5.10;;;;;;;12.86;29.62;99858.84;220488;1277;22564;-73
2022/03/14 12:44:29;;;;;;;7.60;5.10;;;;;;;12.90;28.46;99859.70;220700;1278;22548;-72
2022/03/14 12:49:37;;;;;;;6.60;4.70;;;;;;;12.98;29.00;99857.38;220657;1277;22690;-70
2022/03/14 12:54:41;;;;;;;10.80;5.80;;;;;;;13.06;28.69;99855.69;220934;1276;22570;-72
2022/03/14 12:59:48;;;;;;;8.80;5.90;;;;;;;13.07;26.71;99859.55;220784;1276;22594;-70
2022/03/14 13:04:59;;;;;;;9.00;5.40;;;;;;;13.01;26.40;99855.88;220748;1274;22588;-71
2022/03/14 13:10:02;;;;;;;10.20;6.50;;;;;;;13.02;26.83;99852.43;221112;1274;22574;-70
2022/03/14 13:15:07;;;;;;;7.90;5.50;;;;;;;13.07;27.03;99856.21;221207;1276;23808;-71
2022/03/14 13:20:26;;;;;;;10.70;6.10;;;;;;;13.05;26.66;99852.89;221016;1276;22563;-71
2022/03/14 13:25:30;;;;;;;8.60;5.30;;;;;;;13.12;26.40;99852.84;221338;1276;22537;-71
2022/03/14 13:30:42;;;;;;;7.10;4.80;;;;;;;13.18;26.47;99852.48;220749;1276;22560;-70
2022/03/14 13:35:45;;;;;;;5.70;4.50;;;;;;;13.26;25.95;99849.31;221077;1274;24480;-71
2022/03/14 13:40:47;;;;;;;8.30;5.10;;;;;;;13.35;26.01;99846.37;220703;1274;22542;-71
2022/03/14 13:45:50;;;;;;;6.80;4.80;;;;;;;13.42;25.73;99852.36;220877;1274;22562;-70
2022/03/14 13:50:55;;;;;;;8.10;5.60;;;;;;;13.49;25.28;99852.57;220963;1274;22830;-70
2022/03/14 13:56:22;;;;;;;5.40;4.30;;;;;;;13.45;24.11;99848.55;218607;1276;22573;-71
2022/03/14 14:01:47;;;;;;;7.00;4.50;;;;;;;13.33;23.47;99848.31;220829;1274;22550;-71
2022/03/14 14:07:15;;;;;;;5.90;4.10;;;;;;;13.33;24.63;99847.01;221037;1276;22563;-71
2022/03/14 14:13:01;;;;;;;5.20;3.40;;;;;;;13.35;23.94;99845.61;218669;1274;25354;-70
2022/03/14 14:18:15;;;;;;;4.80;3.70;;;;;;;13.29;23.57;99847.09;220884;1274;25299;-70
2022/03/14 14:23:19;;;;;;;6.90;4.90;;;;;;;13.25;22.31;99856.05;218903;1276;22636;-69
2022/03/14 14:28:38;;;;;;;6.00;3.90;;;;;;;13.13;22.76;99853.55;219484;1274;25289;-70
2022/03/14 14:33:50;;;;;;;6.70;3.90;;;;;;;13.05;22.35;99856.98;221638;1276;23100;-70
2022/03/14 14:38:56;;;;;;;6.30;4.00;;;;;;;12.95;22.88;99858.92;218825;1276;22567;-69
2022/03/14 14:44:07;;;;;;;5.50;4.10;;;;;;;12.89;22.90;99861.59;218523;1274;22620;-72
2022/03/14 14:49:10;;;;;;;6.90;4.70;;;;;;;12.79;22.98;99859.00;221300;1274;22537;-69
2022/03/14 14:54:13;;;;;;;7.70;5.50;;;;;;;12.71;23.34;99864.14;220859;1276;22539;-70
2022/03/14 14:59:15;;;;;;;6.40;5.10;;;;;;;12.57;23.24;99865.81;218600;1274;22579;-70
2022/03/14 15:04:19;;;;;;;8.40;5.40;;;;;;;12.47;24.23;99870.41;220879;1274;22595;-70
2022/03/14 15:09:21;;;;;;;8.80;6.00;;;;;;;12.35;23.51;99867.87;220586;1276;22554;-70
2022/03/14 15:14:27;;;;;;;7.80;5.00;;;;;;;12.19;24.17;99867.81;220534;1276;22874;-70
2022/03/14 15:19:41;;;;;;;9.20;5.80;;;;;;;12.04;23.94;99858.00;220630;1276;24332;-71
2022/03/14 15:24:43;;;;;;;6.60;5.10;;;;;;;11.94;24.70;99863.00;220692;1277;22723;-69
2022/03/14 15:29:48;;;;;;;8.50;5.70;;;;;;;11.83;24.93;99859.28;220596;1277;22662;-70
2022/03/14 15:34:56;;;;;;;11.80;6.30;;;;;;;11.69;24.79;99861.81;220606;1275;24232;-69
2022/03/14 15:40:15;;;;;;;9.80;6.30;;;;;;;11.56;24.83;99865.80;218549;1276;25469;-70
2022/03/14 15:45:18;;;;;;;5.50;4.70;;;;;;;11.43;24.41;99861.80;218529;1276;23836;-69
2022/03/14 15:50:39;;;;;;;9.90;5.80;;;;;;;11.28;24.91;99860.66;218719;1276;22823;-67
2022/03/14 15:56:06;;;;;;;;;;;;;;;11.10;25.12;99864.71;220480;1276;25444;-70
2022/03/14 16:01:12;;;;;;;7.10;5.70;;;;;;;10.95;24.84;99868.11;220819;1275;25339;-69
2022/03/14 16:06:16;;;;;;;9.30;6.30;;;;;;;10.82;25.00;99868.39;218850;1274;25575;-70
2022/03/14 16:11:39;;;;;;;8.30;5.80;;;;;;;10.66;25.36;99879.20;219209;1277;24298;-71
2022/03/14 16:16:42;;;;;;;9.10;5.70;;;;;;;10.53;25.83;99879.57;220581;1277;24377;-70
2022/03/14 16:21:58;;;;;;;9.10;5.90;;;;;;;10.36;25.95;99888.52;221004;1276;24825;-71
2022/03/14 16:27:22;;;;;;;9.00;5.60;;;;;;;10.19;26.22;99888.52;220660;1276;22706;-69
2022/03/14 16:32:25;;;;;;;8.30;5.80;;;;;;;10.01;26.39;99886.73;218726;1276;22594;-70
2022/03/14 16:37:27;;;;;;;8.50;6.20;;;;;;;9.83;26.84;99886.70;218831;1277;22550;-69
2022/03/14 16:42:29;;;;;;;9.10;6.40;;;;;;;9.63;27.01;99891.68;218853;1275;24299;-70
2022/03/14 16:47:34;;;;;;;10.50;6.60;;;;;;;9.45;27.36;99892.48;218797;1276;23827;-70
2022/03/14 16:52:48;;;;;;;11.70;7.30;;;;;;;9.23;27.69;99899.33;219079;1277;22661;-70
2022/03/14 16:57:55;;;;;;;12.90;7.50;;;;;;;8.99;28.08;99914.67;220797;1277;23422;-70
2022/03/14 17:03:26;;;;;;;12.90;7.70;;;;;;;8.69;28.46;99918.02;220568;1274;22655;-70
2022/03/14 17:08:36;;;;;;;15.00;8.20;;;;;;;8.39;28.63;99923.77;220440;1275;23152;-70
2022/03/14 17:14:03;;;;;;;13.90;7.90;;;;;;;8.07;28.96;99930.23;220504;1276;22537;-71
2022/03/14 17:19:36;;;;;;;12.10;7.60;;;;;;;7.79;29.37;99934.05;220469;1276;22557;-69
2022/03/14 17:24:43;;;;;;;13.10;7.80;;;;;;;7.54;29.58;99936.40;220613;1277;22578;-70
2022/03/14 17:29:57;;;;;;;14.10;9.40;;;;;;;7.32;30.11;99940.96;218933;1276;24811;-72
2022/03/14 17:35:19;;;;;;;;;;;;;;;;;;;;;
2022/03/14 17:40:27;;;;;;;17.80;10.80;;;;;;;6.96;30.57;99956.66;220557;1277;22608;-70
2022/03/14 17:45:34;;;;;;;16.50;10.20;;;;;;;6.80;30.56;99962.90;219168;1276;22602;-70
2022/03/14 17:50:49;;;;;;;18.30;10.20;;;;;;;6.66;30.82;99969.20;220517;1276;26421;-70
2022/03/14 17:55:52;;;;;;;18.50;11.40;;;;;;;6.52;30.96;99976.24;220473;1277;22494;-70
2022/03/14 18:00:54;;;;;;;29.70;15.30;;;;;;;6.39;31.21;99978.35;220387;1276;22719;-70
2022/03/14 18:05:59;;;;;;;42.20;20.70;;;;;;;6.25;31.57;99978.62;220718;1276;24270;-71
2022/03/14 18:11:27;;;;;;;41.80;23.20;;;;;;;6.12;31.80;99983.73;220568;1276;25297;-71
2022/03/14 18:16:29;;;;;;;43.50;24.70;;;;;;;5.99;31.70;99989.79;220419;1276;24411;-70
2022/03/14 18:21:31;;;;;;;40.80;23.10;;;;;;;5.88;31.98;99995.29;220559;1277;24338;-70
2022/03/14 18:26:33;;;;;;;44.00;22.90;;;;;;;5.78;32.06;99999.43;220505;1276;23006;-70
2022/03/14 18:31:36;;;;;;;44.10;21.50;;;;;;;5.69;32.23;100005.38;220532;1276;24251;-71
2022/03/14 18:36:38;;;;;;;48.20;23.70;;;;;;;5.64;32.63;100011.33;220511;1276;24382;-71
2022/03/14 18:41:48;;;;;;;47.40;21.90;;;;;;;5.62;32.98;100023.66;220541;1277;22561;-71
2022/03/14 18:46:53;;;;;;;45.30;22.50;;;;;;;5.55;32.95;100029.63;218747;1277;22556;-69
2022/03/14 18:51:56;;;;;;;43.00;21.40;;;;;;;5.46;32.84;100030.07;220424;1275;22597;-70
2022/03/14 18:56:59;;;;;;;55.40;26.80;;;;;;;5.38;33.02;100032.92;220494;1276;26234;-71
2022/03/14 19:02:02;;;;;;;72.80;34.00;;;;;;;5.42;33.41;100037.28;218696;1277;25262;-70
2022/03/14 19:07:08;;;;;;;75.90;34.80;;;;;;;5.54;33.50;100039.34;220782;1275;22562;-70
2022/03/14 19:12:13;;;;;;;72.60;33.20;;;;;;;5.62;33.43;100039.65;220427;1276;22586;-70
2022/03/14 19:17:16;;;;;;;58.90;29.40;;;;;;;5.55;33.68;100039.23;220325;1277;22801;-71
2022/03/14 19:22:18;;;;;;;49.40;25.10;;;;;;;5.45;33.52;100042.56;218653;1277;244312;-70
2022/03/14 19:27:22;;;;;;;52.90;26.70;;;;;;;5.41;33.79;100048.87;218898;1277;25611;-70
2022/03/14 19:32:25;;;;;;;52.70;26.30;;;;;;;5.38;33.79;100048.66;219092;1276;25473;-70
2022/03/14 19:37:58;;;;;;;51.20;25.00;;;;;;;5.29;33.80;100053.50;220426;1276;22571;-70
2022/03/14 19:43:23;;;;;;;50.80;25.20;;;;;;;5.17;33.87;100056.57;220694;1275;22630;-70
2022/03/14 19:48:25;;;;;;;47.50;24.20;;;;;;;5.11;33.99;100058.48;220573;1276;22566;-70
2022/03/14 19:53:49;;;;;;;46.80;23.90;;;;;;;5.06;34.20;100054.02;220589;1276;22730;-70
2022/03/14 20:04:33;;;;;;;47.40;24.40;;;;;;;4.97;34.43;100062.09;220543;1276;24283;-69
2022/03/14 20:09:38;;;;;;;56.60;26.70;;;;;;;4.94;34.77;100064.65;220597;1275;23748;-70
2022/03/14 20:14:48;;;;;;;49.80;24.60;;;;;;;4.93;34.92;100065.61;220538;1276;25417;-71
2022/03/14 20:20:17;;;;;;;50.70;23.60;;;;;;;5.02;35.05;100066.95;220396;1277;25601;-70
2022/03/14 20:25:33;;;;;;;;;;;;;;;;;;;;;
2022/03/14 20:30:39;;;;;;;37.70;18.10;;;;;;;5.37;35.06;100075.78;218850;1276;22487;-70
2022/03/14 20:35:43;;;;;;;34.80;17.90;;;;;;;5.47;34.74;100079.33;218676;1276;22582;-70
2022/03/14 20:40:48;;;;;;;32.80;16.70;;;;;;;5.51;34.71;100080.27;220443;1277;22729;-70
2022/03/14 20:45:54;;;;;;;34.20;16.80;;;;;;;5.53;34.85;100082.24;218571;1277;22994;-70
2022/03/14 20:51:04;;;;;;;39.20;17.80;;;;;;;5.49;34.90;100082.14;220641;1277;22603;-70
2022/03/14 20:56:11;;;;;;;38.70;19.20;;;;;;;5.48;34.86;100078.55;218807;1277;22763;-70
2022/03/14 21:01:20;;;;;;;35.10;19.00;;;;;;;5.47;35.09;100083.91;218761;1277;25321;-68
2022/03/14 21:07:08;;;;;;;34.30;16.90;;;;;;;5.47;35.23;100082.03;220589;1276;22570;-71
2022/03/14 21:12:44;;;;;;;31.80;16.90;;;;;;;5.48;35.27;100081.90;220464;1276;24826;-71
2022/03/14 21:18:07;;;;;;;31.90;16.00;;;;;;;5.50;35.27;100077.96;220395;1276;22561;-70
2022/03/14 21:23:32;;;;;;;36.40;15.50;;;;;;;5.51;35.29;100082.55;220488;1277;22621;-70
2022/03/14 21:28:37;;;;;;;28.50;14.50;;;;;;;5.45;35.23;100078.75;220556;1277;22646;-70
2022/03/14 21:34:02;;;;;;;31.00;14.90;;;;;;;5.38;35.34;100084.91;220677;1275;22560;-70
2022/03/14 21:39:33;;;;;;;27.60;14.00;;;;;;;5.29;35.41;100089.34;220616;1277;24529;-70
2022/03/14 21:45:48;;;;;;;25.60;13.30;;;;;;;5.25;35.57;100083.80;218622;1277;22582;-70
2022/03/14 21:51:23;;;;;;;22.70;11.80;;;;;;;5.33;35.24;100081.09;220363;1277;22579;-70
2022/03/14 21:57:07;;;;;;;23.10;11.20;;;;;;;5.41;35.51;100084.77;220621;1276;22622;-70
2022/03/14 22:02:18;;;;;;;23.10;12.20;;;;;;;5.34;35.22;100088.88;220999;1277;22811;-69
2022/03/14 22:07:21;;;;;;;25.50;12.00;;;;;;;5.22;35.52;100085.41;218871;1277;24982;-70
2022/03/14 22:12:47;;;;;;;21.60;11.40;;;;;;;5.06;35.73;100092.73;220798;1277;22560;-70
2022/03/14 22:17:58;;;;;;;21.20;11.80;;;;;;;4.90;35.96;100091.54;219050;1277;25174;-70
2022/03/14 22:23:01;;;;;;;20.20;11.60;;;;;;;4.73;36.08;100096.13;218751;1277;22693;-71
2022/03/14 22:28:05;;;;;;;22.40;12.20;;;;;;;4.54;36.15;100093.94;220459;1276;23148;-70
2022/03/14 22:33:17;;;;;;;19.30;11.10;;;;;;;4.38;36.31;100094.80;218669;1277;22541;-69
2022/03/14 22:38:27;;;;;;;24.50;11.00;;;;;;;4.24;36.52;100092.20;220696;1276;22614;-69
2022/03/14 22:43:29;;;;;;;21.50;10.50;;;;;;;4.09;36.62;100093.56;220503;1275;24623;-70
2022/03/14 22:48:33;;;;;;;22.10;11.80;;;;;;;3.97;36.81;100093.05;218731;1277;22631;-69
2022/03/14 22:53:36;;;;;;;23.90;12.60;;;;;;;3.86;36.96;100092.42;218785;1277;22556;-69
2022/03/14 22:58:57;;;;;;;29.20;14.00;;;;;;;3.74;37.07;100095.25;218690;1276;22590;-70
2022/03/14 23:16:16;;;;;;;;;;;;;;;3.41;37.41;100114.60;218660;1277;25434;-70
2022/03/14 23:28:37;;;;;;;32.00;15.90;;;;;;;3.17;37.84;100105.01;218344;1277;22582;-70
2022/03/14 23:34:22;;;;;;;36.60;17.70;;;;;;;3.07;37.92;100115.11;218659;1277;25389;-70
2022/03/14 23:39:25;;;;;;;33.00;16.80;;;;;;;2.99;37.94;100129.25;218610;1277;25387;-70
2022/03/14 23:44:29;;;;;;;39.00;18.00;;;;;;;2.92;38.06;100126.50;220778;1277;25368;-70
2022/03/14 23:49:32;;;;;;;42.10;18.80;;;;;;;2.85;38.36;100119.13;220268;1276;26389;-70
2022/03/14 23:54:34;;;;;;;38.60;18.90;;;;;;;2.77;38.54;100124.91;220454;1277;22568;-69
2022/03/14 23:59:37;;;;;;;46.90;20.20;;;;;;;2.71;38.42;100131.86;218716;1277;25299;-70
